sensor_id;sensor_type;location;lat;lon;timestamp;temperature;humidity
45233;DHT22;30969;51.052;17.056;2023-03-24T00:03:19;16.50;56.30
45233;DHT22;30969;51.052;17.056;2023-03-24T00:21:15;16.40;56.70
45233;DHT22;30969;51.052;17.056;2023-03-24T00:26:20;16.30;56.80
45233;DHT22;30969;51.052;17.056;2023-03-24T00:31:26;16.30;57.00
45233;DHT22;30969;51.052;17.056;2023-03-24T00:36:30;16.30;57.00
45233;DHT22;30969;51.052;17.056;2023-03-24T00:41:34;16.20;57.00
45233;DHT22;30969;51.052;17.056;2023-03-24T00:46:37;16.20;57.20
45233;DHT22;30969;51.052;17.056;2023-03-24T00:51:42;16.20;57.40
45233;DHT22;30969;51.052;17.056;2023-03-24T00:56:46;16.10;57.60
45233;DHT22;30969;51.052;17.056;2023-03-24T01:01:51;16.10;57.90
45233;DHT22;30969;51.052;17.056;2023-03-24T01:06:56;16.10;58.10
45233;DHT22;30969;51.052;17.056;2023-03-24T01:12:00;16.00;58.20
45233;DHT22;30969;51.052;17.056;2023-03-24T01:17:04;16.00;58.50
45233;DHT22;30969;51.052;17.056;2023-03-24T01:22:10;16.00;58.50
45233;DHT22;30969;51.052;17.056;2023-03-24T01:27:13;16.00;58.80
45233;DHT22;30969;51.052;17.056;2023-03-24T01:32:17;15.90;58.70
45233;DHT22;30969;51.052;17.056;2023-03-24T01:37:22;16.00;58.60
45233;DHT22;30969;51.052;17.056;2023-03-24T01:42:27;16.00;58.60
45233;DHT22;30969;51.052;17.056;2023-03-24T01:47:30;16.10;58.70
45233;DHT22;30969;51.052;17.056;2023-03-24T01:52:38;16.10;58.80
45233;DHT22;30969;51.052;17.056;2023-03-24T01:57:46;16.00;59.00
45233;DHT22;30969;51.052;17.056;2023-03-24T02:02:53;16.00;59.20
45233;DHT22;30969;51.052;17.056;2023-03-24T02:08:05;16.00;59.20
45233;DHT22;30969;51.052;17.056;2023-03-24T02:13:09;16.00;59.20
45233;DHT22;30969;51.052;17.056;2023-03-24T02:18:21;16.00;59.20
45233;DHT22;30969;51.052;17.056;2023-03-24T02:23:48;16.00;59.20
45233;DHT22;30969;51.052;17.056;2023-03-24T02:29:06;16.00;59.20
45233;DHT22;30969;51.052;17.056;2023-03-24T02:34:44;15.90;59.20
45233;DHT22;30969;51.052;17.056;2023-03-24T02:40:05;16.00;59.20
45233;DHT22;30969;51.052;17.056;2023-03-24T02:45:22;16.00;59.20
45233;DHT22;30969;51.052;17.056;2023-03-24T02:50:29;16.00;59.40
45233;DHT22;30969;51.052;17.056;2023-03-24T02:55:41;16.00;59.50
45233;DHT22;30969;51.052;17.056;2023-03-24T03:00:49;16.00;59.90
45233;DHT22;30969;51.052;17.056;2023-03-24T03:06:02;16.00;60.00
45233;DHT22;30969;51.052;17.056;2023-03-24T03:11:13;16.00;60.10
45233;DHT22;30969;51.052;17.056;2023-03-24T03:16:20;16.00;60.30
45233;DHT22;30969;51.052;17.056;2023-03-24T03:21:29;16.10;61.20
45233;DHT22;30969;51.052;17.056;2023-03-24T03:26:35;16.10;60.40
45233;DHT22;30969;51.052;17.056;2023-03-24T03:31:41;16.10;60.50
45233;DHT22;30969;51.052;17.056;2023-03-24T03:36:49;16.10;60.50
45233;DHT22;30969;51.052;17.056;2023-03-24T03:41:58;16.10;60.50
45233;DHT22;30969;51.052;17.056;2023-03-24T03:47:01;16.10;60.70
45233;DHT22;30969;51.052;17.056;2023-03-24T03:52:05;16.00;60.90
45233;DHT22;30969;51.052;17.056;2023-03-24T03:57:11;16.00;61.00
45233;DHT22;30969;51.052;17.056;2023-03-24T04:02:25;16.00;61.20
45233;DHT22;30969;51.052;17.056;2023-03-24T04:07:36;16.00;61.70
45233;DHT22;30969;51.052;17.056;2023-03-24T04:12:58;15.90;61.90
45233;DHT22;30969;51.052;17.056;2023-03-24T04:18:21;15.90;61.90
45233;DHT22;30969;51.052;17.056;2023-03-24T04:23:32;15.90;61.90
45233;DHT22;30969;51.052;17.056;2023-03-24T04:28:49;15.90;62.00
45233;DHT22;30969;51.052;17.056;2023-03-24T04:34:02;15.90;61.90
45233;DHT22;30969;51.052;17.056;2023-03-24T04:39:10;15.90;62.00
45233;DHT22;30969;51.052;17.056;2023-03-24T04:44:16;15.80;62.10
45233;DHT22;30969;51.052;17.056;2023-03-24T04:49:23;15.80;62.20
45233;DHT22;30969;51.052;17.056;2023-03-24T04:54:28;15.80;62.20
45233;DHT22;30969;51.052;17.056;2023-03-24T04:59:33;15.80;62.30
45233;DHT22;30969;51.052;17.056;2023-03-24T05:04:37;15.80;62.30
45233;DHT22;30969;51.052;17.056;2023-03-24T05:09:41;15.80;62.30
45233;DHT22;30969;51.052;17.056;2023-03-24T05:14:46;15.80;62.40
45233;DHT22;30969;51.052;17.056;2023-03-24T05:19:49;15.80;62.30
45233;DHT22;30969;51.052;17.056;2023-03-24T05:24:53;15.80;62.20
45233;DHT22;30969;51.052;17.056;2023-03-24T05:29:58;15.90;62.10
45233;DHT22;30969;51.052;17.056;2023-03-24T05:35:02;15.90;62.20
45233;DHT22;30969;51.052;17.056;2023-03-24T05:40:07;15.90;62.30
45233;DHT22;30969;51.052;17.056;2023-03-24T05:45:12;15.90;62.90
45233;DHT22;30969;51.052;17.056;2023-03-24T05:50:15;15.90;62.80
45233;DHT22;30969;51.052;17.056;2023-03-24T05:55:19;15.90;63.10
45233;DHT22;30969;51.052;17.056;2023-03-24T06:00:25;15.80;63.40
45233;DHT22;30969;51.052;17.056;2023-03-24T06:05:32;15.70;63.60
45233;DHT22;30969;51.052;17.056;2023-03-24T06:10:35;15.80;63.90
45233;DHT22;30969;51.052;17.056;2023-03-24T06:15:40;15.80;64.10
45233;DHT22;30969;51.052;17.056;2023-03-24T06:20:49;15.80;64.10
45233;DHT22;30969;51.052;17.056;2023-03-24T06:25:57;15.90;63.90
45233;DHT22;30969;51.052;17.056;2023-03-24T06:31:05;15.90;63.80
45233;DHT22;30969;51.052;17.056;2023-03-24T06:36:16;16.00;63.80
45233;DHT22;30969;51.052;17.056;2023-03-24T06:41:20;16.00;63.80
45233;DHT22;30969;51.052;17.056;2023-03-24T06:46:25;16.10;63.90
45233;DHT22;30969;51.052;17.056;2023-03-24T06:51:29;16.10;64.00
45233;DHT22;30969;51.052;17.056;2023-03-24T06:56:32;16.20;63.80
45233;DHT22;30969;51.052;17.056;2023-03-24T07:01:37;16.20;63.70
45233;DHT22;30969;51.052;17.056;2023-03-24T07:06:42;16.30;63.70
45233;DHT22;30969;51.052;17.056;2023-03-24T07:12:06;16.30;63.50
45233;DHT22;30969;51.052;17.056;2023-03-24T07:17:11;16.40;63.80
45233;DHT22;30969;51.052;17.056;2023-03-24T07:22:15;16.40;64.40
45233;DHT22;30969;51.052;17.056;2023-03-24T07:27:19;16.40;64.50
45233;DHT22;30969;51.052;17.056;2023-03-24T07:32:24;16.50;64.90
45233;DHT22;30969;51.052;17.056;2023-03-24T07:37:29;16.50;65.10
45233;DHT22;30969;51.052;17.056;2023-03-24T07:42:33;16.50;65.00
45233;DHT22;30969;51.052;17.056;2023-03-24T07:47:42;16.60;65.30
45233;DHT22;30969;51.052;17.056;2023-03-24T07:52:48;16.60;65.50
45233;DHT22;30969;51.052;17.056;2023-03-24T07:57:51;16.60;65.30
45233;DHT22;30969;51.052;17.056;2023-03-24T08:02:56;16.60;65.60
45233;DHT22;30969;51.052;17.056;2023-03-24T08:08:01;16.60;65.80
45233;DHT22;30969;51.052;17.056;2023-03-24T08:13:08;16.60;65.90
45233;DHT22;30969;51.052;17.056;2023-03-24T08:18:14;16.60;65.80
45233;DHT22;30969;51.052;17.056;2023-03-24T08:23:20;16.60;65.00
45233;DHT22;30969;51.052;17.056;2023-03-24T08:42:31;16.50;65.40
45233;DHT22;30969;51.052;17.056;2023-03-24T08:47:34;16.70;66.50
45233;DHT22;30969;51.052;17.056;2023-03-24T08:52:38;16.90;66.10
45233;DHT22;30969;51.052;17.056;2023-03-24T08:57:44;17.00;65.80
45233;DHT22;30969;51.052;17.056;2023-03-24T09:02:49;17.10;64.80
45233;DHT22;30969;51.052;17.056;2023-03-24T09:13:32;17.10;63.80
45233;DHT22;30969;51.052;17.056;2023-03-24T09:18:36;17.10;64.10
45233;DHT22;30969;51.052;17.056;2023-03-24T09:23:39;17.20;64.20
45233;DHT22;30969;51.052;17.056;2023-03-24T09:28:44;17.20;64.40
45233;DHT22;30969;51.052;17.056;2023-03-24T09:33:48;17.40;64.20
45233;DHT22;30969;51.052;17.056;2023-03-24T09:38:52;17.60;63.90
45233;DHT22;30969;51.052;17.056;2023-03-24T09:43:59;17.70;63.70
45233;DHT22;30969;51.052;17.056;2023-03-24T09:49:05;17.80;63.40
45233;DHT22;30969;51.052;17.056;2023-03-24T09:54:24;17.90;62.50
45233;DHT22;30969;51.052;17.056;2023-03-24T09:59:33;18.00;62.00
45233;DHT22;30969;51.052;17.056;2023-03-24T10:04:38;18.10;62.50
45233;DHT22;30969;51.052;17.056;2023-03-24T10:09:44;18.30;61.30
45233;DHT22;30969;51.052;17.056;2023-03-24T10:15:00;18.30;60.30
45233;DHT22;30969;51.052;17.056;2023-03-24T10:20:15;18.40;59.60
45233;DHT22;30969;51.052;17.056;2023-03-24T10:25:25;18.50;59.00
45233;DHT22;30969;51.052;17.056;2023-03-24T10:30:35;18.60;58.50
45233;DHT22;30969;51.052;17.056;2023-03-24T10:35:41;18.80;57.90
45233;DHT22;30969;51.052;17.056;2023-03-24T10:40:48;18.90;57.00
45233;DHT22;30969;51.052;17.056;2023-03-24T10:45:55;19.00;55.50
45233;DHT22;30969;51.052;17.056;2023-03-24T10:50:59;19.10;53.80
45233;DHT22;30969;51.052;17.056;2023-03-24T10:56:04;19.20;52.80
45233;DHT22;30969;51.052;17.056;2023-03-24T11:01:21;19.30;52.40
45233;DHT22;30969;51.052;17.056;2023-03-24T11:06:25;19.30;51.50
45233;DHT22;30969;51.052;17.056;2023-03-24T11:11:30;19.30;51.00
45233;DHT22;30969;51.052;17.056;2023-03-24T11:16:37;19.30;51.00
45233;DHT22;30969;51.052;17.056;2023-03-24T11:21:46;19.30;51.60
45233;DHT22;30969;51.052;17.056;2023-03-24T11:26:55;19.30;51.60
45233;DHT22;30969;51.052;17.056;2023-03-24T11:32:03;19.30;50.50
45233;DHT22;30969;51.052;17.056;2023-03-24T11:37:16;19.40;50.90
45233;DHT22;30969;51.052;17.056;2023-03-24T11:42:26;19.40;50.80
45233;DHT22;30969;51.052;17.056;2023-03-24T11:47:32;19.40;49.70
45233;DHT22;30969;51.052;17.056;2023-03-24T11:52:39;19.40;50.20
45233;DHT22;30969;51.052;17.056;2023-03-24T11:57:53;19.40;49.90
45233;DHT22;30969;51.052;17.056;2023-03-24T12:03:29;19.50;50.10
45233;DHT22;30969;51.052;17.056;2023-03-24T12:08:41;19.50;50.40
45233;DHT22;30969;51.052;17.056;2023-03-24T12:13:50;19.60;50.40
45233;DHT22;30969;51.052;17.056;2023-03-24T12:19:06;19.60;50.10
45233;DHT22;30969;51.052;17.056;2023-03-24T12:24:24;19.60;50.30
45233;DHT22;30969;51.052;17.056;2023-03-24T12:29:42;19.60;50.50
45233;DHT22;30969;51.052;17.056;2023-03-24T12:35:09;19.60;50.30
45233;DHT22;30969;51.052;17.056;2023-03-24T12:45:51;19.60;50.80
45233;DHT22;30969;51.052;17.056;2023-03-24T12:51:07;19.70;50.70
45233;DHT22;30969;51.052;17.056;2023-03-24T12:56:16;19.70;51.00
45233;DHT22;30969;51.052;17.056;2023-03-24T13:01:24;19.80;51.10
45233;DHT22;30969;51.052;17.056;2023-03-24T13:06:38;19.80;50.80
45233;DHT22;30969;51.052;17.056;2023-03-24T13:11:48;19.80;51.10
45233;DHT22;30969;51.052;17.056;2023-03-24T13:17:02;19.80;51.10
45233;DHT22;30969;51.052;17.056;2023-03-24T13:22:13;19.80;51.10
45233;DHT22;30969;51.052;17.056;2023-03-24T13:27:22;19.80;51.00
45233;DHT22;30969;51.052;17.056;2023-03-24T13:51:54;19.70;50.90
45233;DHT22;30969;51.052;17.056;2023-03-24T13:57:03;19.70;51.20
45233;DHT22;30969;51.052;17.056;2023-03-24T17:46:35;16.90;57.50
45233;DHT22;30969;51.052;17.056;2023-03-24T17:51:41;17.10;58.30
45233;DHT22;30969;51.052;17.056;2023-03-24T17:56:47;17.30;58.70
45233;DHT22;30969;51.052;17.056;2023-03-24T18:01:52;17.00;60.30
45233;DHT22;30969;51.052;17.056;2023-03-24T18:06:56;16.40;62.30
45233;DHT22;30969;51.052;17.056;2023-03-24T18:12:00;16.00;63.90
45233;DHT22;30969;51.052;17.056;2023-03-24T18:17:06;15.90;64.20
45233;DHT22;30969;51.052;17.056;2023-03-24T18:22:11;15.90;64.90
45233;DHT22;30969;51.052;17.056;2023-03-24T18:27:15;15.70;65.00
45233;DHT22;30969;51.052;17.056;2023-03-24T18:32:20;15.70;65.00
45233;DHT22;30969;51.052;17.056;2023-03-24T18:37:25;15.60;64.40
45233;DHT22;30969;51.052;17.056;2023-03-24T18:42:29;15.30;63.20
45233;DHT22;30969;51.052;17.056;2023-03-24T18:47:34;15.00;62.50
45233;DHT22;30969;51.052;17.056;2023-03-24T18:52:39;14.60;64.50
45233;DHT22;30969;51.052;17.056;2023-03-24T18:57:43;14.60;65.30
45233;DHT22;30969;51.052;17.056;2023-03-24T19:02:48;14.70;65.10
45233;DHT22;30969;51.052;17.056;2023-03-24T19:07:54;14.80;65.00
45233;DHT22;30969;51.052;17.056;2023-03-24T19:12:57;14.90;64.50
45233;DHT22;30969;51.052;17.056;2023-03-24T19:18:02;15.00;64.40
45233;DHT22;30969;51.052;17.056;2023-03-24T19:23:06;15.10;64.10
45233;DHT22;30969;51.052;17.056;2023-03-24T19:28:10;15.20;63.90
45233;DHT22;30969;51.052;17.056;2023-03-24T19:33:18;15.30;63.70
45233;DHT22;30969;51.052;17.056;2023-03-24T19:38:22;15.30;63.60
45233;DHT22;30969;51.052;17.056;2023-03-24T19:43:26;15.40;63.40
45233;DHT22;30969;51.052;17.056;2023-03-24T19:48:31;15.40;63.60
45233;DHT22;30969;51.052;17.056;2023-03-24T19:53:35;15.40;63.40
45233;DHT22;30969;51.052;17.056;2023-03-24T19:58:38;15.50;63.30
45233;DHT22;30969;51.052;17.056;2023-03-24T20:03:43;15.40;63.90
45233;DHT22;30969;51.052;17.056;2023-03-24T20:08:50;15.30;65.20
45233;DHT22;30969;51.052;17.056;2023-03-24T20:13:54;15.20;64.70
45233;DHT22;30969;51.052;17.056;2023-03-24T20:18:59;15.10;65.00
45233;DHT22;30969;51.052;17.056;2023-03-24T20:24:03;15.10;65.00
45233;DHT22;30969;51.052;17.056;2023-03-24T20:29:07;15.00;65.00
45233;DHT22;30969;51.052;17.056;2023-03-24T20:34:12;15.00;65.00
45233;DHT22;30969;51.052;17.056;2023-03-24T20:39:16;14.90;64.90
45233;DHT22;30969;51.052;17.056;2023-03-24T20:44:20;14.90;64.90
45233;DHT22;30969;51.052;17.056;2023-03-24T20:49:25;14.90;64.70
45233;DHT22;30969;51.052;17.056;2023-03-24T20:54:28;14.70;64.80
45233;DHT22;30969;51.052;17.056;2023-03-24T20:59:32;14.70;64.80
45233;DHT22;30969;51.052;17.056;2023-03-24T21:04:38;14.80;64.60
45233;DHT22;30969;51.052;17.056;2023-03-24T21:09:41;14.70;64.20
45233;DHT22;30969;51.052;17.056;2023-03-24T21:14:45;14.40;63.70
45233;DHT22;30969;51.052;17.056;2023-03-24T21:19:50;14.20;64.10
45233;DHT22;30969;51.052;17.056;2023-03-24T21:24:56;14.10;64.10
45233;DHT22;30969;51.052;17.056;2023-03-24T21:30:00;13.90;64.00
45233;DHT22;30969;51.052;17.056;2023-03-24T21:35:06;13.90;63.80
45233;DHT22;30969;51.052;17.056;2023-03-24T21:40:10;13.90;63.00
45233;DHT22;30969;51.052;17.056;2023-03-24T21:45:16;13.70;62.50
45233;DHT22;30969;51.052;17.056;2023-03-24T21:50:21;13.50;62.50
45233;DHT22;30969;51.052;17.056;2023-03-24T21:55:25;13.40;62.90
45233;DHT22;30969;51.052;17.056;2023-03-24T22:00:29;13.40;62.50
45233;DHT22;30969;51.052;17.056;2023-03-24T22:05:39;13.40;62.60
45233;DHT22;30969;51.052;17.056;2023-03-24T22:10:43;13.40;62.30
45233;DHT22;30969;51.052;17.056;2023-03-24T22:15:51;13.50;63.20
45233;DHT22;30969;51.052;17.056;2023-03-24T22:21:00;13.50;61.90
45233;DHT22;30969;51.052;17.056;2023-03-24T22:26:06;13.40;61.70
45233;DHT22;30969;51.052;17.056;2023-03-24T22:31:12;13.30;61.80
45233;DHT22;30969;51.052;17.056;2023-03-24T22:36:17;13.30;61.60
45233;DHT22;30969;51.052;17.056;2023-03-24T22:41:21;13.20;61.70
45233;DHT22;30969;51.052;17.056;2023-03-24T22:46:24;13.20;61.80
45233;DHT22;30969;51.052;17.056;2023-03-24T22:51:30;13.20;61.60
45233;DHT22;30969;51.052;17.056;2023-03-24T22:56:33;13.10;61.80
45233;DHT22;30969;51.052;17.056;2023-03-24T23:01:37;13.00;61.90
45233;DHT22;30969;51.052;17.056;2023-03-24T23:06:42;13.00;62.20
45233;DHT22;30969;51.052;17.056;2023-03-24T23:11:46;12.90;62.30
45233;DHT22;30969;51.052;17.056;2023-03-24T23:16:50;13.00;62.10
45233;DHT22;30969;51.052;17.056;2023-03-24T23:21:57;13.00;63.00
45233;DHT22;30969;51.052;17.056;2023-03-24T23:27:00;12.90;62.00
45233;DHT22;30969;51.052;17.056;2023-03-24T23:32:06;12.90;62.30
45233;DHT22;30969;51.052;17.056;2023-03-24T23:37:11;12.90;62.40
45233;DHT22;30969;51.052;17.056;2023-03-24T23:42:15;12.80;62.50
45233;DHT22;30969;51.052;17.056;2023-03-24T23:47:19;12.70;62.60
45233;DHT22;30969;51.052;17.056;2023-03-24T23:52:24;12.70;62.90
45233;DHT22;30969;51.052;17.056;2023-03-24T23:57:28;12.70;62.90
